createdAt,value
2019-04-03T00:00:09.666Z,10.27
2019-04-03T00:02:54.610Z,9.87
2019-04-03T00:05:39.733Z,9.63
2019-04-03T00:08:25.622Z,10.20
2019-04-03T00:11:11.222Z,8.93
2019-04-03T00:13:56.292Z,10.67
2019-04-03T00:16:41.002Z,11.97
2019-04-03T00:19:25.608Z,11.03
2019-04-03T00:22:10.178Z,11.10
2019-04-03T00:24:54.748Z,11.00
2019-04-03T00:27:39.706Z,10.63
2019-04-03T00:30:24.754Z,10.47
2019-04-03T00:33:09.282Z,10.80
2019-04-03T00:35:54.020Z,10.73
2019-04-03T00:38:39.029Z,11.03
2019-04-03T00:41:24.715Z,11.17
2019-04-03T00:44:09.598Z,11.57
2019-04-03T00:46:55.767Z,10.90
2019-04-03T00:49:41.197Z,10.80
2019-04-03T00:52:27.221Z,9.97
2019-04-03T00:55:12.377Z,10.13
2019-04-03T00:57:57.329Z,9.73
2019-04-03T01:00:41.872Z,9.47
2019-04-03T01:03:28.264Z,9.87
2019-04-03T01:06:13.818Z,9.73
2019-04-03T01:08:59.443Z,9.67
2019-04-03T01:11:45.018Z,9.13
2019-04-03T01:14:31.644Z,9.53
2019-04-03T01:17:16.599Z,9.37
2019-04-03T01:20:06.038Z,9.27
2019-04-03T01:22:50.583Z,10.03
2019-04-03T01:25:35.157Z,9.77
2019-04-03T01:28:19.887Z,9.07
2019-04-03T01:31:04.488Z,9.77
2019-04-03T01:33:49.568Z,10.37
2019-04-03T01:36:34.081Z,9.53
2019-04-03T01:39:18.937Z,10.23
2019-04-03T01:42:05.280Z,9.83
2019-04-03T01:44:49.714Z,9.60
2019-04-03T01:47:34.343Z,9.93
2019-04-03T01:50:18.912Z,9.50
2019-04-03T01:53:03.950Z,9.10
2019-04-03T01:55:48.518Z,8.97
2019-04-03T01:58:33.147Z,9.40
2019-04-03T02:01:17.735Z,8.87
2019-04-03T02:04:02.846Z,8.67
2019-04-03T02:06:47.262Z,9.27
2019-04-03T02:09:31.995Z,9.20
2019-04-03T02:12:19.285Z,9.23
2019-04-03T02:15:03.597Z,9.10
2019-04-03T02:17:48.373Z,9.13
2019-04-03T02:20:33.184Z,8.60
2019-04-03T02:23:18.333Z,9.30
2019-04-03T02:26:03.481Z,8.43
2019-04-03T02:28:48.587Z,8.30
2019-04-03T02:31:33.516Z,8.43
2019-04-03T02:34:18.142Z,8.37
2019-04-03T02:37:02.593Z,8.50
2019-04-03T02:39:47.159Z,8.17
2019-04-03T02:42:31.864Z,8.33
2019-04-03T02:45:16.719Z,7.93
2019-04-03T02:48:04.597Z,7.70
2019-04-03T02:50:48.609Z,7.60
2019-04-03T02:53:33.759Z,7.77
2019-04-03T02:56:18.581Z,7.43
2019-04-03T02:59:03.421Z,8.07
2019-04-03T03:01:48.297Z,7.37
2019-04-03T03:04:33.256Z,7.97
2019-04-03T03:07:18.098Z,8.10
2019-04-03T03:10:04.663Z,7.87
2019-04-03T03:12:49.766Z,8.00
2019-04-03T03:15:34.893Z,8.20
2019-04-03T03:18:19.944Z,8.00
2019-04-03T03:21:05.525Z,7.83
2019-04-03T03:23:50.560Z,8.10
2019-04-03T03:26:37.537Z,8.20
2019-04-03T03:29:26.296Z,7.80
2019-04-03T03:32:17.730Z,8.00
2019-04-03T03:35:09.823Z,7.57
2019-04-03T03:38:04.642Z,7.33
2019-04-03T03:40:49.966Z,8.40
2019-04-03T03:43:38.416Z,7.93
2019-04-03T03:46:26.478Z,8.50
2019-04-03T03:49:09.240Z,8.60
2019-04-03T03:51:54.985Z,7.60
2019-04-03T03:54:40.302Z,8.30
2019-04-03T03:57:26.124Z,8.30
2019-04-03T04:00:11.211Z,9.10
2019-04-03T04:02:56.290Z,8.23
2019-04-03T04:05:41.175Z,8.13
2019-04-03T04:08:26.868Z,8.57
2019-04-03T04:11:11.757Z,7.63
2019-04-03T04:13:56.742Z,8.20
2019-04-03T04:16:41.968Z,8.70
2019-04-03T04:19:30.556Z,9.10
2019-04-03T04:22:16.760Z,9.30
2019-04-03T04:25:01.965Z,8.80
2019-04-03T04:27:47.337Z,9.77
2019-04-03T04:30:32.408Z,10.13
2019-04-03T04:33:17.775Z,9.80
2019-04-03T04:36:02.778Z,10.30
2019-04-03T04:38:47.161Z,9.27
2019-04-03T04:41:33.055Z,10.47
2019-04-03T04:44:17.901Z,10.73
2019-04-03T04:47:02.594Z,10.77
2019-04-03T04:49:47.058Z,10.17
2019-04-03T04:52:31.820Z,10.23
2019-04-03T04:55:16.427Z,10.00
2019-04-03T04:58:01.595Z,9.70
2019-04-03T05:00:47.628Z,10.00
2019-04-03T05:03:32.642Z,10.63
2019-04-03T05:06:18.048Z,11.10
2019-04-03T05:09:04.927Z,11.20
2019-04-03T05:11:49.522Z,11.33
2019-04-03T05:14:34.819Z,11.00
2019-04-03T05:17:19.622Z,10.17
2019-04-03T05:20:05.251Z,10.50
2019-04-03T05:22:50.007Z,10.63
2019-04-03T05:25:35.337Z,10.50
2019-04-03T05:28:20.390Z,10.63
2019-04-03T05:31:06.086Z,10.43
2019-04-03T05:33:51.647Z,10.00
2019-04-03T05:36:36.533Z,10.73
2019-04-03T05:39:22.094Z,10.97
2019-04-03T05:42:08.302Z,10.77
2019-04-03T05:44:53.066Z,11.33
2019-04-03T05:47:39.219Z,11.37
2019-04-03T05:50:26.371Z,12.10
2019-04-03T05:53:11.458Z,11.10
2019-04-03T05:55:56.346Z,10.23
2019-04-03T05:58:53.784Z,12.03
2019-04-03T06:01:27.770Z,12.37
2019-04-03T06:04:12.678Z,11.90
2019-04-03T06:06:57.852Z,12.33
2019-04-03T06:09:42.677Z,12.00
2019-04-03T06:12:27.498Z,11.37
2019-04-03T06:15:12.967Z,11.80
2019-04-03T06:17:58.046Z,11.97
2019-04-03T06:20:43.967Z,12.00
2019-04-03T06:23:28.814Z,13.13
2019-04-03T06:26:13.398Z,14.70
2019-04-03T06:28:58.587Z,15.73
2019-04-03T06:31:43.693Z,15.53
2019-04-03T06:34:28.570Z,18.27
2019-04-03T06:37:13.607Z,18.77
2019-04-03T06:39:58.245Z,19.40
2019-04-03T06:42:44.913Z,19.73
2019-04-03T06:45:29.335Z,16.43
2019-04-03T06:48:14.525Z,15.83
2019-04-03T06:50:59.731Z,13.77
2019-04-03T06:53:44.288Z,12.97
2019-04-03T06:56:28.914Z,13.07
2019-04-03T06:59:14.497Z,11.83
2019-04-03T07:02:00.450Z,11.47
2019-04-03T07:04:45.474Z,12.03
2019-04-03T07:07:34.069Z,11.80
2019-04-03T07:10:25.114Z,11.43
2019-04-03T07:13:03.495Z,12.00
2019-04-03T07:15:48.042Z,12.07
2019-04-03T07:18:34.701Z,11.90
2019-04-03T07:21:20.705Z,12.03
2019-04-03T07:24:06.985Z,11.27
2019-04-03T07:26:51.829Z,12.40
2019-04-03T07:29:36.318Z,12.10
2019-04-03T07:32:20.986Z,12.87
2019-04-03T07:35:09.314Z,12.80
2019-04-03T07:37:53.055Z,12.70
2019-04-03T07:40:37.947Z,12.27
2019-04-03T07:43:22.536Z,12.53
2019-04-03T07:46:07.437Z,12.87
2019-04-03T07:48:52.459Z,13.17
2019-04-03T07:51:37.161Z,12.40
2019-04-03T07:54:22.597Z,12.03
2019-04-03T07:57:10.181Z,12.30
2019-04-03T07:59:54.733Z,11.90
2019-04-03T08:02:39.350Z,12.03
2019-04-03T08:05:24.115Z,11.87
2019-04-03T08:08:08.811Z,11.77
2019-04-03T08:10:53.222Z,8.97
2019-04-03T08:13:38.478Z,9.80
2019-04-03T08:16:23.381Z,9.77
2019-04-03T08:19:08.760Z,9.03
2019-04-03T08:21:53.776Z,8.63
2019-04-03T08:24:39.702Z,8.47
2019-04-03T08:27:24.848Z,8.50
2019-04-03T08:30:09.861Z,8.57
2019-04-03T08:32:54.985Z,8.20
2019-04-03T08:35:39.898Z,8.10
2019-04-03T08:38:25.100Z,8.00
2019-04-03T08:41:10.023Z,8.20
2019-04-03T08:43:54.586Z,7.40
2019-04-03T08:46:39.182Z,7.73
2019-04-03T08:49:25.797Z,8.10
2019-04-03T08:52:10.411Z,8.17
2019-04-03T08:54:55.256Z,7.67
2019-04-03T08:57:39.823Z,7.53
2019-04-03T09:00:24.677Z,6.80
2019-04-03T09:03:09.410Z,9.10
2019-04-03T09:05:55.762Z,8.88
2019-04-03T09:08:40.640Z,8.45
2019-04-03T09:11:25.444Z,7.25
2019-04-03T09:14:10.625Z,7.50
2019-04-03T09:16:55.418Z,6.93
2019-04-03T09:19:41.716Z,7.28
2019-04-03T09:22:27.278Z,7.70
2019-04-03T09:25:13.745Z,7.22
2019-04-03T09:27:58.853Z,6.70
2019-04-03T09:30:45.250Z,6.93
2019-04-03T09:33:30.601Z,7.37
2019-04-03T09:36:15.779Z,7.63
2019-04-03T09:39:01.523Z,7.13
2019-04-03T09:41:46.248Z,6.80
2019-04-03T09:44:30.952Z,6.80
2019-04-03T09:47:16.073Z,6.65
2019-04-03T09:50:00.731Z,6.93
2019-04-03T09:52:49.366Z,7.40
2019-04-03T09:55:35.862Z,7.45
2019-04-03T09:58:19.209Z,7.08
2019-04-03T10:01:04.354Z,6.78
2019-04-03T10:03:49.291Z,9.30
2019-04-03T10:06:34.231Z,10.95
2019-04-03T10:09:18.990Z,10.78
2019-04-03T10:12:03.855Z,10.50
2019-04-03T10:14:48.810Z,11.00
2019-04-03T10:17:33.466Z,9.98
2019-04-03T10:20:18.541Z,10.38
2019-04-03T10:23:03.790Z,14.13
2019-04-03T10:25:48.351Z,14.43
2019-04-03T10:28:33.525Z,15.35
2019-04-03T10:31:18.545Z,15.40
2019-04-03T10:34:04.198Z,15.90
2019-04-03T10:36:49.545Z,16.62
2019-04-03T10:39:34.566Z,18.55
2019-04-03T10:42:19.323Z,18.48
2019-04-03T10:45:06.275Z,17.37
2019-04-03T10:47:51.040Z,17.55
2019-04-03T10:50:37.542Z,22.40
2019-04-03T10:53:22.065Z,25.80
2019-04-03T10:56:06.638Z,26.13
2019-04-03T10:58:51.257Z,25.77
2019-04-03T11:01:36.320Z,26.77
2019-04-03T11:04:21.753Z,26.93
2019-04-03T11:07:06.783Z,27.40
2019-04-03T11:09:51.972Z,28.53
2019-04-03T11:12:36.871Z,28.00
2019-04-03T11:15:21.430Z,28.17
2019-04-03T11:18:06.486Z,29.80
2019-04-03T11:20:51.567Z,27.30
2019-04-03T11:23:40.702Z,24.20
2019-04-03T11:26:24.838Z,22.77
2019-04-03T11:29:10.441Z,23.20
2019-04-03T11:31:55.997Z,26.03
2019-04-03T11:34:41.195Z,24.83
2019-04-03T11:37:26.359Z,24.73
2019-04-03T11:40:12.813Z,25.93
2019-04-03T11:42:58.059Z,25.77
2019-04-03T11:45:43.052Z,24.57
2019-04-03T11:48:28.101Z,24.73
2019-04-03T11:51:13.145Z,26.00
2019-04-03T11:53:57.672Z,25.80
2019-04-03T11:56:44.916Z,27.23
2019-04-03T11:59:29.035Z,27.13
2019-04-03T12:02:14.236Z,27.53
2019-04-03T12:04:58.939Z,27.03
2019-04-03T12:07:43.744Z,27.73
2019-04-03T12:10:28.809Z,27.43
2019-04-03T12:13:14.340Z,28.90
2019-04-03T12:15:59.604Z,29.33
2019-04-03T12:18:44.955Z,30.90
2019-04-03T12:21:29.560Z,32.13
2019-04-03T12:24:14.076Z,31.60
2019-04-03T12:26:58.853Z,32.67
2019-04-03T12:29:43.745Z,33.47
2019-04-03T12:32:37.417Z,32.50
2019-04-03T12:35:15.022Z,32.40
2019-04-03T12:37:59.525Z,30.60
2019-04-03T12:40:44.119Z,30.80
2019-04-03T12:43:29.656Z,30.60
2019-04-03T12:46:14.596Z,26.50
2019-04-03T12:48:59.735Z,24.73
2019-04-03T12:51:44.616Z,25.43
2019-04-03T12:54:30.223Z,23.63
2019-04-03T12:57:14.690Z,23.73
2019-04-03T12:59:59.923Z,23.00
2019-04-03T13:02:44.935Z,22.37
2019-04-03T13:05:29.773Z,23.20
2019-04-03T13:08:15.185Z,21.87
2019-04-03T13:11:00.701Z,21.63
2019-04-03T13:13:45.964Z,21.37
2019-04-03T13:16:31.030Z,21.73
2019-04-03T13:19:16.209Z,20.37
2019-04-03T13:22:01.376Z,17.77
2019-04-03T13:24:48.164Z,16.40
2019-04-03T13:27:32.794Z,15.93
2019-04-03T13:30:18.027Z,13.83
2019-04-03T13:33:06.620Z,12.97
2019-04-03T13:35:49.617Z,12.77
2019-04-03T13:38:34.839Z,14.73
2019-04-03T13:41:19.629Z,15.10
2019-04-03T13:44:04.580Z,15.40
2019-04-03T13:46:52.589Z,16.33
2019-04-03T13:49:36.672Z,16.35
2019-04-03T13:52:21.524Z,14.90
2019-04-03T13:55:07.578Z,14.43
2019-04-03T13:57:52.798Z,13.93
2019-04-03T14:00:38.040Z,13.08
2019-04-03T14:03:23.141Z,12.88
2019-04-03T14:06:08.576Z,13.95
2019-04-03T14:08:53.445Z,12.80
2019-04-03T14:11:38.732Z,13.88
2019-04-03T14:14:23.679Z,13.20
2019-04-03T14:17:08.590Z,13.50
2019-04-03T14:19:53.915Z,13.48
2019-04-03T14:22:38.809Z,13.22
2019-04-03T14:25:28.122Z,13.00
2019-04-03T14:28:11.194Z,13.20
2019-04-03T14:30:56.149Z,12.40
2019-04-03T14:33:45.141Z,12.47
2019-04-03T14:36:28.941Z,11.93
2019-04-03T14:39:14.061Z,11.30
2019-04-03T14:41:59.135Z,10.80
2019-04-03T14:44:45.678Z,9.70
2019-04-03T14:47:31.104Z,10.60
2019-04-03T14:50:15.917Z,9.40
2019-04-03T14:53:01.519Z,10.37
2019-04-03T14:55:49.875Z,9.33
2019-04-03T14:58:33.818Z,8.00
2019-04-03T15:01:19.848Z,8.33
2019-04-03T15:04:05.155Z,8.40
2019-04-03T15:07:01.720Z,6.90
2019-04-03T15:09:37.096Z,7.95
2019-04-03T15:12:22.246Z,8.45
2019-04-03T15:15:07.996Z,7.78
2019-04-03T15:17:53.153Z,7.57
2019-04-03T15:20:38.401Z,8.10
2019-04-03T15:23:23.310Z,9.13
2019-04-03T15:26:08.274Z,8.53
2019-04-03T15:28:53.544Z,8.80
2019-04-03T15:31:38.558Z,11.43
2019-04-03T15:34:26.735Z,11.93
2019-04-03T15:37:13.730Z,10.10
2019-04-03T15:39:59.034Z,9.50
2019-04-03T15:42:44.895Z,11.53
2019-04-03T15:45:29.916Z,9.47
2019-04-03T15:48:15.135Z,9.43
2019-04-03T15:51:00.360Z,9.87
2019-04-03T15:53:45.972Z,9.47
2019-04-03T15:56:31.491Z,11.53
2019-04-03T15:59:16.489Z,11.03
2019-04-03T16:02:01.985Z,10.60
2019-04-03T16:04:47.200Z,10.97
2019-04-03T16:07:33.495Z,10.80
2019-04-03T16:10:21.759Z,10.60
2019-04-03T16:13:06.880Z,10.47
2019-04-03T16:15:55.222Z,10.20
2019-04-03T16:18:39.752Z,9.97
2019-04-03T16:21:25.066Z,9.90
2019-04-03T16:24:12.558Z,10.70
2019-04-03T16:26:57.542Z,10.60
2019-04-03T16:29:42.703Z,9.80
2019-04-03T16:32:28.278Z,9.50
2019-04-03T16:35:14.510Z,11.10
2019-04-03T16:38:00.277Z,10.53
2019-04-03T16:40:46.620Z,10.50
2019-04-03T16:43:32.197Z,10.10
2019-04-03T16:46:17.432Z,10.80
2019-04-03T16:49:03.153Z,11.00
2019-04-03T16:51:48.683Z,10.97
2019-04-03T16:54:34.320Z,11.53
2019-04-03T16:57:22.207Z,11.80
2019-04-03T17:00:08.430Z,12.00
2019-04-03T17:02:53.965Z,13.00
2019-04-03T17:05:42.867Z,13.17
2019-04-03T17:08:28.254Z,13.63
2019-04-03T17:11:13.112Z,14.97
2019-04-03T17:13:58.355Z,13.70
2019-04-03T17:16:45.641Z,13.33
2019-04-03T17:19:30.550Z,14.07
2019-04-03T17:22:15.861Z,13.97
2019-04-03T17:25:01.168Z,13.53
2019-04-03T17:27:55.019Z,14.47
2019-04-03T17:30:33.518Z,15.23
2019-04-03T17:33:18.724Z,17.00
2019-04-03T17:36:03.763Z,17.00
2019-04-03T17:38:49.307Z,16.47
2019-04-03T17:41:36.085Z,18.30
2019-04-03T17:44:21.130Z,18.40
2019-04-03T17:47:06.664Z,17.27
2019-04-03T17:49:51.603Z,18.83
2019-04-03T17:52:37.111Z,18.87
2019-04-03T17:55:22.079Z,18.13
2019-04-03T17:58:07.341Z,18.33
2019-04-03T18:00:52.660Z,18.97
2019-04-03T18:03:39.223Z,19.43
2019-04-03T18:06:27.187Z,19.50
2019-04-03T18:09:11.414Z,18.93
2019-04-03T18:11:58.084Z,18.27
2019-04-03T18:14:43.250Z,21.07
2019-04-03T18:17:29.918Z,20.70
2019-04-03T18:20:16.294Z,20.93
2019-04-03T18:23:01.108Z,22.63
2019-04-03T18:25:46.474Z,18.87
2019-04-03T18:28:31.711Z,18.10
2019-04-03T18:31:16.860Z,18.27
2019-04-03T18:34:02.224Z,18.90
2019-04-03T18:36:47.408Z,18.90
2019-04-03T18:39:32.899Z,19.13
2019-04-03T18:42:18.611Z,18.73
2019-04-03T18:45:05.534Z,18.13
2019-04-03T18:47:51.102Z,19.60
2019-04-03T18:50:36.134Z,19.97
2019-04-03T18:53:21.384Z,19.50
2019-04-03T18:56:06.311Z,20.57
2019-04-03T18:58:54.738Z,20.37
2019-04-03T19:01:39.700Z,20.27
2019-04-03T19:04:25.094Z,22.10
2019-04-03T19:07:10.646Z,20.53
2019-04-03T19:10:06.288Z,21.10
2019-04-03T19:12:43.656Z,21.50
2019-04-03T19:15:29.426Z,20.70
2019-04-03T19:18:19.840Z,22.37
2019-04-03T19:21:01.408Z,22.57
2019-04-03T19:23:49.907Z,23.43
2019-04-03T19:26:33.352Z,23.93
2019-04-03T19:29:18.664Z,22.97
2019-04-03T19:32:04.343Z,23.13
2019-04-03T19:34:51.905Z,20.20
2019-04-03T19:37:36.756Z,20.97
2019-04-03T19:40:21.574Z,19.10
2019-04-03T19:43:07.446Z,17.87
2019-04-03T19:45:52.733Z,15.57
2019-04-03T19:48:37.939Z,16.70
2019-04-03T19:51:22.961Z,16.30
2019-04-03T19:54:08.065Z,14.93
2019-04-03T19:56:56.251Z,16.87
2019-04-03T19:59:40.454Z,16.17
2019-04-03T20:02:25.613Z,17.43
2019-04-03T20:05:10.831Z,17.40
2019-04-03T20:07:58.632Z,16.83
2019-04-03T20:10:43.580Z,17.10
2019-04-03T20:13:29.275Z,19.67
2019-04-03T20:16:14.194Z,20.40
2019-04-03T20:18:59.066Z,21.33
2019-04-03T20:21:44.780Z,22.60
2019-04-03T20:24:30.190Z,18.10
2019-04-03T20:27:16.683Z,19.50
2019-04-03T20:30:05.533Z,20.70
2019-04-03T20:32:50.890Z,20.97
2019-04-03T20:35:35.823Z,22.53
2019-04-03T20:38:21.130Z,21.90
2019-04-03T20:41:06.626Z,21.37
2019-04-03T20:43:51.798Z,20.03
2019-04-03T20:46:37.009Z,20.40
2019-04-03T20:49:22.000Z,20.13
2019-04-03T20:52:10.691Z,20.40
2019-04-03T20:54:54.648Z,18.90
2019-04-03T20:57:40.129Z,17.53
2019-04-03T21:00:25.239Z,18.97
2019-04-03T21:03:12.597Z,19.20
2019-04-03T21:05:57.152Z,18.27
2019-04-03T21:08:42.580Z,18.07
2019-04-03T21:11:27.628Z,17.70
2019-04-03T21:14:13.020Z,17.77
2019-04-03T21:16:58.018Z,16.00
2019-04-03T21:19:42.979Z,16.90
2019-04-03T21:22:30.237Z,17.13
2019-04-03T21:25:14.660Z,18.30
2019-04-03T21:27:59.525Z,18.50
2019-04-03T21:30:44.218Z,17.10
2019-04-03T21:33:30.736Z,17.90
2019-04-03T21:36:15.983Z,17.80
2019-04-03T21:39:00.643Z,17.53
2019-04-03T21:41:46.533Z,18.23
2019-04-03T21:44:32.014Z,17.77
2019-04-03T21:47:17.843Z,18.40
2019-04-03T21:50:04.166Z,18.83
2019-04-03T21:52:48.935Z,18.43
2019-04-03T21:55:34.777Z,19.50
2019-04-03T21:58:19.674Z,20.10
2019-04-03T22:01:19.770Z,18.40
2019-04-03T22:04:04.617Z,20.00
2019-04-03T22:06:49.618Z,19.83
2019-04-03T22:09:34.591Z,20.20
2019-04-03T22:12:19.774Z,21.30
2019-04-03T22:15:05.817Z,22.47
2019-04-03T22:17:52.359Z,20.73
2019-04-03T22:20:38.092Z,21.60
2019-04-03T22:23:23.186Z,19.43
2019-04-03T22:26:09.826Z,18.40
2019-04-03T22:28:54.975Z,19.40
2019-04-03T22:31:40.047Z,19.83
2019-04-03T22:34:25.277Z,19.90
2019-04-03T22:37:10.268Z,19.00
2019-04-03T22:39:55.397Z,17.93
2019-04-03T22:42:40.579Z,17.47
2019-04-03T22:45:25.596Z,17.07
2019-04-03T22:48:10.425Z,15.97
2019-04-03T22:50:55.327Z,13.80
2019-04-03T22:53:41.686Z,13.63
2019-04-03T22:56:27.162Z,11.50
2019-04-03T22:59:12.102Z,11.53
2019-04-03T23:01:56.983Z,10.80
2019-04-03T23:04:46.009Z,11.93
2019-04-03T23:07:28.918Z,11.47
2019-04-03T23:10:13.477Z,10.73
2019-04-03T23:12:58.706Z,9.50
2019-04-03T23:15:43.877Z,9.57
2019-04-03T23:18:29.167Z,9.30
2019-04-03T23:21:13.595Z,9.20
2019-04-03T23:23:58.510Z,9.00
2019-04-03T23:26:43.302Z,10.10
2019-04-03T23:29:27.884Z,9.70
2019-04-03T23:32:15.252Z,9.63
2019-04-03T23:34:59.644Z,10.30
2019-04-03T23:37:44.558Z,10.53
2019-04-03T23:40:29.398Z,10.53
2019-04-03T23:43:14.299Z,10.57
2019-04-03T23:45:59.292Z,10.80
2019-04-03T23:48:43.953Z,10.40
2019-04-03T23:51:28.579Z,10.17
2019-04-03T23:54:13.403Z,9.30
2019-04-03T23:56:58.697Z,9.73
2019-04-03T23:59:44.346Z,9.40
